sensor_id;sensor_type;location;lat;lon;timestamp;P1;durP1;ratioP1;P2;durP2;ratioP2
26080;SDS011;13991;51.174;4.438;2023-04-28T00:01:42;23.30;;;10.70;;
26080;SDS011;13991;51.174;4.438;2023-04-28T00:04:08;25.83;;;11.93;;
26080;SDS011;13991;51.174;4.438;2023-04-28T00:06:34;23.00;;;11.93;;
26080;SDS011;13991;51.174;4.438;2023-04-28T00:09:00;28.47;;;11.87;;
26080;SDS011;13991;51.174;4.438;2023-04-28T00:11:25;28.00;;;12.07;;
26080;SDS011;13991;51.174;4.438;2023-04-28T00:13:51;25.57;;;11.17;;
26080;SDS011;13991;51.174;4.438;2023-04-28T00:16:16;34.83;;;12.00;;
26080;SDS011;13991;51.174;4.438;2023-04-28T00:18:42;23.73;;;11.50;;
26080;SDS011;13991;51.174;4.438;2023-04-28T00:21:08;22.97;;;11.00;;
26080;SDS011;13991;51.174;4.438;2023-04-28T00:23:33;27.27;;;11.63;;
26080;SDS011;13991;51.174;4.438;2023-04-28T00:25:59;34.50;;;10.93;;
26080;SDS011;13991;51.174;4.438;2023-04-28T00:28:25;26.83;;;11.20;;
26080;SDS011;13991;51.174;4.438;2023-04-28T00:30:50;25.70;;;12.53;;
26080;SDS011;13991;51.174;4.438;2023-04-28T00:33:16;20.50;;;11.53;;
26080;SDS011;13991;51.174;4.438;2023-04-28T00:35:42;22.97;;;11.60;;
26080;SDS011;13991;51.174;4.438;2023-04-28T00:38:07;31.47;;;11.60;;
26080;SDS011;13991;51.174;4.438;2023-04-28T00:42:59;24.33;;;12.47;;
26080;SDS011;13991;51.174;4.438;2023-04-28T00:45:25;24.97;;;11.70;;
26080;SDS011;13991;51.174;4.438;2023-04-28T00:47:51;29.23;;;12.60;;
26080;SDS011;13991;51.174;4.438;2023-04-28T00:50:17;25.80;;;12.53;;
26080;SDS011;13991;51.174;4.438;2023-04-28T00:52:42;24.60;;;11.37;;
26080;SDS011;13991;51.174;4.438;2023-04-28T00:55:08;26.47;;;11.50;;
26080;SDS011;13991;51.174;4.438;2023-04-28T00:57:34;26.47;;;11.20;;
26080;SDS011;13991;51.174;4.438;2023-04-28T01:00:01;23.50;;;12.57;;
26080;SDS011;13991;51.174;4.438;2023-04-28T01:02:27;21.90;;;12.10;;
26080;SDS011;13991;51.174;4.438;2023-04-28T01:04:55;24.73;;;10.93;;
26080;SDS011;13991;51.174;4.438;2023-04-28T01:07:21;24.20;;;12.37;;
26080;SDS011;13991;51.174;4.438;2023-04-28T01:09:47;23.93;;;11.17;;
26080;SDS011;13991;51.174;4.438;2023-04-28T01:12:12;27.20;;;12.03;;
26080;SDS011;13991;51.174;4.438;2023-04-28T01:14:38;27.07;;;12.10;;
26080;SDS011;13991;51.174;4.438;2023-04-28T01:17:04;23.30;;;11.93;;
26080;SDS011;13991;51.174;4.438;2023-04-28T01:19:31;23.37;;;11.27;;
26080;SDS011;13991;51.174;4.438;2023-04-28T01:21:57;32.30;;;11.93;;
26080;SDS011;13991;51.174;4.438;2023-04-28T01:24:23;25.97;;;11.97;;
26080;SDS011;13991;51.174;4.438;2023-04-28T01:26:48;24.27;;;11.33;;
26080;SDS011;13991;51.174;4.438;2023-04-28T01:29:14;33.53;;;12.33;;
26080;SDS011;13991;51.174;4.438;2023-04-28T01:31:40;30.30;;;12.27;;
26080;SDS011;13991;51.174;4.438;2023-04-28T01:34:05;22.33;;;11.07;;
26080;SDS011;13991;51.174;4.438;2023-04-28T01:36:31;23.93;;;11.60;;
26080;SDS011;13991;51.174;4.438;2023-04-28T01:38:57;25.17;;;11.67;;
26080;SDS011;13991;51.174;4.438;2023-04-28T01:41:23;31.40;;;11.73;;
26080;SDS011;13991;51.174;4.438;2023-04-28T01:43:49;30.67;;;12.40;;
26080;SDS011;13991;51.174;4.438;2023-04-28T01:46:15;27.77;;;12.50;;
26080;SDS011;13991;51.174;4.438;2023-04-28T01:48:40;28.27;;;12.27;;
26080;SDS011;13991;51.174;4.438;2023-04-28T01:51:06;29.77;;;12.23;;
26080;SDS011;13991;51.174;4.438;2023-04-28T01:53:32;32.33;;;12.90;;
26080;SDS011;13991;51.174;4.438;2023-04-28T01:55:58;28.07;;;13.87;;
26080;SDS011;13991;51.174;4.438;2023-04-28T01:58:23;32.27;;;13.87;;
26080;SDS011;13991;51.174;4.438;2023-04-28T02:00:49;30.37;;;15.13;;
26080;SDS011;13991;51.174;4.438;2023-04-28T02:03:15;40.40;;;14.83;;
26080;SDS011;13991;51.174;4.438;2023-04-28T02:05:41;42.83;;;14.03;;
26080;SDS011;13991;51.174;4.438;2023-04-28T02:08:06;32.20;;;14.37;;
26080;SDS011;13991;51.174;4.438;2023-04-28T02:10:32;36.43;;;13.80;;
26080;SDS011;13991;51.174;4.438;2023-04-28T02:12:58;31.33;;;15.63;;
26080;SDS011;13991;51.174;4.438;2023-04-28T02:15:23;33.80;;;14.80;;
26080;SDS011;13991;51.174;4.438;2023-04-28T02:17:49;31.93;;;15.30;;
26080;SDS011;13991;51.174;4.438;2023-04-28T02:20:14;36.13;;;15.33;;
26080;SDS011;13991;51.174;4.438;2023-04-28T02:22:40;36.13;;;15.53;;
26080;SDS011;13991;51.174;4.438;2023-04-28T02:25:06;35.43;;;16.07;;
26080;SDS011;13991;51.174;4.438;2023-04-28T02:27:34;36.80;;;15.23;;
26080;SDS011;13991;51.174;4.438;2023-04-28T02:30:01;33.07;;;16.20;;
26080;SDS011;13991;51.174;4.438;2023-04-28T02:32:27;38.67;;;16.07;;
26080;SDS011;13991;51.174;4.438;2023-04-28T02:34:53;40.27;;;16.57;;
26080;SDS011;13991;51.174;4.438;2023-04-28T02:37:19;35.40;;;15.63;;
26080;SDS011;13991;51.174;4.438;2023-04-28T02:39:45;37.93;;;16.20;;
26080;SDS011;13991;51.174;4.438;2023-04-28T02:42:11;36.63;;;15.37;;
26080;SDS011;13991;51.174;4.438;2023-04-28T02:44:37;41.43;;;16.67;;
26080;SDS011;13991;51.174;4.438;2023-04-28T02:47:02;40.63;;;17.03;;
26080;SDS011;13991;51.174;4.438;2023-04-28T02:49:28;43.67;;;15.33;;
26080;SDS011;13991;51.174;4.438;2023-04-28T02:51:54;33.93;;;16.80;;
26080;SDS011;13991;51.174;4.438;2023-04-28T02:54:20;28.77;;;15.03;;
26080;SDS011;13991;51.174;4.438;2023-04-28T02:56:55;37.53;;;15.97;;
26080;SDS011;13991;51.174;4.438;2023-04-28T02:59:22;31.17;;;15.03;;
26080;SDS011;13991;51.174;4.438;2023-04-28T03:01:48;32.50;;;16.87;;
26080;SDS011;13991;51.174;4.438;2023-04-28T03:04:16;35.17;;;15.90;;
26080;SDS011;13991;51.174;4.438;2023-04-28T03:06:41;33.90;;;16.63;;
26080;SDS011;13991;51.174;4.438;2023-04-28T03:09:08;53.50;;;16.87;;
26080;SDS011;13991;51.174;4.438;2023-04-28T03:11:34;35.43;;;15.47;;
26080;SDS011;13991;51.174;4.438;2023-04-28T03:14:00;32.33;;;16.00;;
26080;SDS011;13991;51.174;4.438;2023-04-28T03:16:26;37.70;;;16.80;;
26080;SDS011;13991;51.174;4.438;2023-04-28T03:18:52;34.00;;;16.27;;
26080;SDS011;13991;51.174;4.438;2023-04-28T03:21:17;38.17;;;15.33;;
26080;SDS011;13991;51.174;4.438;2023-04-28T03:23:43;33.60;;;15.30;;
26080;SDS011;13991;51.174;4.438;2023-04-28T03:26:09;32.57;;;15.23;;
26080;SDS011;13991;51.174;4.438;2023-04-28T03:28:35;34.03;;;15.93;;
26080;SDS011;13991;51.174;4.438;2023-04-28T03:31:01;38.03;;;15.73;;
26080;SDS011;13991;51.174;4.438;2023-04-28T03:33:27;30.83;;;15.60;;
26080;SDS011;13991;51.174;4.438;2023-04-28T03:35:52;27.97;;;14.97;;
26080;SDS011;13991;51.174;4.438;2023-04-28T03:38:19;31.23;;;15.50;;
26080;SDS011;13991;51.174;4.438;2023-04-28T03:40:45;31.83;;;15.77;;
26080;SDS011;13991;51.174;4.438;2023-04-28T03:43:11;42.10;;;15.23;;
26080;SDS011;13991;51.174;4.438;2023-04-28T03:45:36;26.37;;;15.30;;
26080;SDS011;13991;51.174;4.438;2023-04-28T03:48:02;35.90;;;14.70;;
26080;SDS011;13991;51.174;4.438;2023-04-28T03:50:28;40.00;;;15.23;;
26080;SDS011;13991;51.174;4.438;2023-04-28T03:52:54;36.53;;;16.43;;
26080;SDS011;13991;51.174;4.438;2023-04-28T03:55:20;35.23;;;15.77;;
26080;SDS011;13991;51.174;4.438;2023-04-28T03:57:45;29.53;;;14.57;;
26080;SDS011;13991;51.174;4.438;2023-04-28T04:00:11;36.67;;;15.77;;
26080;SDS011;13991;51.174;4.438;2023-04-28T04:02:37;34.60;;;15.90;;
26080;SDS011;13991;51.174;4.438;2023-04-28T04:05:03;36.47;;;16.80;;
26080;SDS011;13991;51.174;4.438;2023-04-28T04:07:29;44.77;;;15.70;;
26080;SDS011;13991;51.174;4.438;2023-04-28T04:09:55;39.53;;;15.60;;
26080;SDS011;13991;51.174;4.438;2023-04-28T04:12:20;35.20;;;15.47;;
26080;SDS011;13991;51.174;4.438;2023-04-28T04:14:46;32.30;;;16.20;;
26080;SDS011;13991;51.174;4.438;2023-04-28T04:17:11;33.07;;;15.73;;
26080;SDS011;13991;51.174;4.438;2023-04-28T04:19:37;32.40;;;15.43;;
26080;SDS011;13991;51.174;4.438;2023-04-28T04:22:03;34.27;;;15.80;;
26080;SDS011;13991;51.174;4.438;2023-04-28T04:24:28;33.87;;;17.13;;
26080;SDS011;13991;51.174;4.438;2023-04-28T04:26:54;34.53;;;16.30;;
26080;SDS011;13991;51.174;4.438;2023-04-28T04:29:20;35.00;;;17.33;;
26080;SDS011;13991;51.174;4.438;2023-04-28T04:31:45;34.13;;;17.47;;
26080;SDS011;13991;51.174;4.438;2023-04-28T04:34:11;35.10;;;16.10;;
26080;SDS011;13991;51.174;4.438;2023-04-28T04:36:37;38.57;;;16.73;;
26080;SDS011;13991;51.174;4.438;2023-04-28T04:39:02;31.67;;;16.87;;
26080;SDS011;13991;51.174;4.438;2023-04-28T04:41:28;37.93;;;16.57;;
26080;SDS011;13991;51.174;4.438;2023-04-28T04:43:54;40.60;;;18.33;;
26080;SDS011;13991;51.174;4.438;2023-04-28T04:46:20;30.70;;;16.73;;
26080;SDS011;13991;51.174;4.438;2023-04-28T04:48:45;31.33;;;17.23;;
26080;SDS011;13991;51.174;4.438;2023-04-28T04:51:11;40.37;;;18.27;;
26080;SDS011;13991;51.174;4.438;2023-04-28T04:53:37;40.07;;;18.00;;
26080;SDS011;13991;51.174;4.438;2023-04-28T04:56:03;39.17;;;17.93;;
26080;SDS011;13991;51.174;4.438;2023-04-28T04:58:29;40.03;;;18.30;;
26080;SDS011;13991;51.174;4.438;2023-04-28T05:00:55;37.17;;;17.77;;
26080;SDS011;13991;51.174;4.438;2023-04-28T05:03:20;32.50;;;17.40;;
26080;SDS011;13991;51.174;4.438;2023-04-28T05:05:46;36.10;;;18.83;;
26080;SDS011;13991;51.174;4.438;2023-04-28T05:08:12;41.60;;;19.07;;
26080;SDS011;13991;51.174;4.438;2023-04-28T05:10:38;41.27;;;19.23;;
26080;SDS011;13991;51.174;4.438;2023-04-28T05:13:04;42.50;;;19.17;;
26080;SDS011;13991;51.174;4.438;2023-04-28T05:15:30;36.23;;;19.07;;
26080;SDS011;13991;51.174;4.438;2023-04-28T05:17:56;37.47;;;20.03;;
26080;SDS011;13991;51.174;4.438;2023-04-28T05:20:22;35.80;;;18.00;;
26080;SDS011;13991;51.174;4.438;2023-04-28T05:22:48;36.90;;;19.07;;
26080;SDS011;13991;51.174;4.438;2023-04-28T05:25:13;34.67;;;18.97;;
26080;SDS011;13991;51.174;4.438;2023-04-28T05:27:40;36.63;;;19.47;;
26080;SDS011;13991;51.174;4.438;2023-04-28T05:30:06;39.17;;;19.13;;
26080;SDS011;13991;51.174;4.438;2023-04-28T05:32:33;43.53;;;19.80;;
26080;SDS011;13991;51.174;4.438;2023-04-28T05:34:59;38.83;;;19.13;;
26080;SDS011;13991;51.174;4.438;2023-04-28T05:37:26;38.73;;;19.27;;
26080;SDS011;13991;51.174;4.438;2023-04-28T05:39:51;41.93;;;19.77;;
26080;SDS011;13991;51.174;4.438;2023-04-28T05:42:17;43.53;;;18.57;;
26080;SDS011;13991;51.174;4.438;2023-04-28T05:44:43;39.80;;;18.30;;
26080;SDS011;13991;51.174;4.438;2023-04-28T05:47:09;49.37;;;20.07;;
26080;SDS011;13991;51.174;4.438;2023-04-28T05:49:35;38.80;;;19.63;;
26080;SDS011;13991;51.174;4.438;2023-04-28T05:52:01;39.77;;;18.80;;
26080;SDS011;13991;51.174;4.438;2023-04-28T05:54:27;41.60;;;19.93;;
26080;SDS011;13991;51.174;4.438;2023-04-28T05:56:53;40.90;;;20.77;;
26080;SDS011;13991;51.174;4.438;2023-04-28T05:59:19;42.50;;;21.30;;
26080;SDS011;13991;51.174;4.438;2023-04-28T06:01:45;41.60;;;20.77;;
26080;SDS011;13991;51.174;4.438;2023-04-28T06:04:11;40.27;;;21.10;;
26080;SDS011;13991;51.174;4.438;2023-04-28T06:06:37;54.73;;;21.40;;
26080;SDS011;13991;51.174;4.438;2023-04-28T06:09:02;39.17;;;19.77;;
26080;SDS011;13991;51.174;4.438;2023-04-28T06:11:28;46.57;;;21.57;;
26080;SDS011;13991;51.174;4.438;2023-04-28T06:13:54;41.90;;;21.33;;
26080;SDS011;13991;51.174;4.438;2023-04-28T06:16:20;41.00;;;19.70;;
26080;SDS011;13991;51.174;4.438;2023-04-28T06:18:47;50.27;;;21.43;;
26080;SDS011;13991;51.174;4.438;2023-04-28T06:21:13;48.37;;;20.93;;
26080;SDS011;13991;51.174;4.438;2023-04-28T06:23:40;46.90;;;23.03;;
26080;SDS011;13991;51.174;4.438;2023-04-28T06:26:06;50.03;;;23.00;;
26080;SDS011;13991;51.174;4.438;2023-04-28T06:28:33;48.53;;;22.87;;
26080;SDS011;13991;51.174;4.438;2023-04-28T06:30:58;58.83;;;24.03;;
26080;SDS011;13991;51.174;4.438;2023-04-28T06:33:24;50.47;;;23.93;;
26080;SDS011;13991;51.174;4.438;2023-04-28T06:35:50;46.30;;;24.53;;
26080;SDS011;13991;51.174;4.438;2023-04-28T06:38:16;47.27;;;24.53;;
26080;SDS011;13991;51.174;4.438;2023-04-28T06:40:42;50.40;;;23.77;;
26080;SDS011;13991;51.174;4.438;2023-04-28T06:43:09;49.33;;;25.17;;
26080;SDS011;13991;51.174;4.438;2023-04-28T06:45:35;44.60;;;24.20;;
26080;SDS011;13991;51.174;4.438;2023-04-28T06:48:01;43.63;;;24.63;;
26080;SDS011;13991;51.174;4.438;2023-04-28T06:50:27;54.17;;;25.40;;
26080;SDS011;13991;51.174;4.438;2023-04-28T06:52:53;56.13;;;26.27;;
26080;SDS011;13991;51.174;4.438;2023-04-28T06:55:18;50.00;;;27.23;;
26080;SDS011;13991;51.174;4.438;2023-04-28T06:57:44;50.43;;;25.87;;
26080;SDS011;13991;51.174;4.438;2023-04-28T07:00:10;54.23;;;26.90;;
26080;SDS011;13991;51.174;4.438;2023-04-28T07:02:38;61.20;;;27.30;;
26080;SDS011;13991;51.174;4.438;2023-04-28T07:05:04;56.03;;;27.33;;
26080;SDS011;13991;51.174;4.438;2023-04-28T07:07:30;47.77;;;25.37;;
26080;SDS011;13991;51.174;4.438;2023-04-28T07:09:55;48.87;;;25.77;;
26080;SDS011;13991;51.174;4.438;2023-04-28T07:12:23;49.23;;;25.13;;
26080;SDS011;13991;51.174;4.438;2023-04-28T07:14:48;49.00;;;25.03;;
26080;SDS011;13991;51.174;4.438;2023-04-28T07:17:15;52.60;;;25.40;;
26080;SDS011;13991;51.174;4.438;2023-04-28T07:19:41;60.67;;;25.57;;
26080;SDS011;13991;51.174;4.438;2023-04-28T07:22:07;54.00;;;27.03;;
26080;SDS011;13991;51.174;4.438;2023-04-28T07:24:32;47.53;;;25.00;;
26080;SDS011;13991;51.174;4.438;2023-04-28T07:26:58;52.97;;;25.87;;
26080;SDS011;13991;51.174;4.438;2023-04-28T07:29:25;49.30;;;24.87;;
26080;SDS011;13991;51.174;4.438;2023-04-28T07:31:53;60.67;;;28.23;;
26080;SDS011;13991;51.174;4.438;2023-04-28T07:34:18;50.07;;;25.47;;
26080;SDS011;13991;51.174;4.438;2023-04-28T07:36:44;51.33;;;24.87;;
26080;SDS011;13991;51.174;4.438;2023-04-28T07:39:11;45.47;;;24.83;;
26080;SDS011;13991;51.174;4.438;2023-04-28T07:41:37;51.70;;;24.70;;
26080;SDS011;13991;51.174;4.438;2023-04-28T07:44:06;47.93;;;23.90;;
26080;SDS011;13991;51.174;4.438;2023-04-28T07:46:32;48.97;;;22.97;;
26080;SDS011;13991;51.174;4.438;2023-04-28T07:48:58;42.20;;;22.33;;
26080;SDS011;13991;51.174;4.438;2023-04-28T07:51:24;62.57;;;25.47;;
26080;SDS011;13991;51.174;4.438;2023-04-28T07:53:50;39.57;;;22.17;;
26080;SDS011;13991;51.174;4.438;2023-04-28T07:56:16;39.80;;;21.50;;
26080;SDS011;13991;51.174;4.438;2023-04-28T07:58:42;39.57;;;22.23;;
26080;SDS011;13991;51.174;4.438;2023-04-28T08:01:07;40.37;;;20.43;;
26080;SDS011;13991;51.174;4.438;2023-04-28T08:03:33;42.17;;;21.23;;
26080;SDS011;13991;51.174;4.438;2023-04-28T08:05:59;31.70;;;19.57;;
26080;SDS011;13991;51.174;4.438;2023-04-28T08:08:25;32.90;;;18.50;;
26080;SDS011;13991;51.174;4.438;2023-04-28T08:10:54;28.27;;;16.80;;
26080;SDS011;13991;51.174;4.438;2023-04-28T08:13:20;27.07;;;15.97;;
26080;SDS011;13991;51.174;4.438;2023-04-28T08:15:46;29.90;;;16.60;;
26080;SDS011;13991;51.174;4.438;2023-04-28T08:18:12;26.60;;;15.33;;
26080;SDS011;13991;51.174;4.438;2023-04-28T08:20:38;19.93;;;12.10;;
26080;SDS011;13991;51.174;4.438;2023-04-28T08:23:03;25.10;;;13.20;;
26080;SDS011;13991;51.174;4.438;2023-04-28T08:25:29;24.77;;;11.90;;
26080;SDS011;13991;51.174;4.438;2023-04-28T08:27:55;26.50;;;11.37;;
26080;SDS011;13991;51.174;4.438;2023-04-28T08:30:21;16.10;;;9.57;;
26080;SDS011;13991;51.174;4.438;2023-04-28T08:32:47;16.83;;;8.73;;
26080;SDS011;13991;51.174;4.438;2023-04-28T08:35:12;14.83;;;8.63;;
26080;SDS011;13991;51.174;4.438;2023-04-28T08:37:39;14.97;;;7.80;;
26080;SDS011;13991;51.174;4.438;2023-04-28T08:40:05;9.20;;;5.23;;
26080;SDS011;13991;51.174;4.438;2023-04-28T08:42:33;5.30;;;3.40;;
26080;SDS011;13991;51.174;4.438;2023-04-28T08:45:01;9.33;;;3.53;;
26080;SDS011;13991;51.174;4.438;2023-04-28T08:50:05;4.07;;;2.10;;
26080;SDS011;13991;51.174;4.438;2023-04-28T08:52:32;5.47;;;2.33;;
26080;SDS011;13991;51.174;4.438;2023-04-28T08:55:00;3.07;;;2.10;;
26080;SDS011;13991;51.174;4.438;2023-04-28T08:57:32;5.80;;;2.13;;
26080;SDS011;13991;51.174;4.438;2023-04-28T09:00:02;4.43;;;2.07;;
26080;SDS011;13991;51.174;4.438;2023-04-28T09:02:29;6.13;;;2.10;;
26080;SDS011;13991;51.174;4.438;2023-04-28T09:04:55;5.67;;;2.50;;
26080;SDS011;13991;51.174;4.438;2023-04-28T09:07:21;4.23;;;2.50;;
26080;SDS011;13991;51.174;4.438;2023-04-28T09:09:47;3.47;;;2.43;;
26080;SDS011;13991;51.174;4.438;2023-04-28T09:12:12;6.73;;;2.00;;
26080;SDS011;13991;51.174;4.438;2023-04-28T09:14:38;3.93;;;2.53;;
26080;SDS011;13991;51.174;4.438;2023-04-28T09:17:11;7.57;;;2.63;;
26080;SDS011;13991;51.174;4.438;2023-04-28T09:19:38;7.33;;;2.50;;
26080;SDS011;13991;51.174;4.438;2023-04-28T09:22:07;4.03;;;2.53;;
26080;SDS011;13991;51.174;4.438;2023-04-28T09:24:39;6.33;;;2.30;;
26080;SDS011;13991;51.174;4.438;2023-04-28T09:27:07;5.67;;;1.63;;
26080;SDS011;13991;51.174;4.438;2023-04-28T09:29:36;1.97;;;1.37;;
26080;SDS011;13991;51.174;4.438;2023-04-28T09:32:16;2.33;;;1.70;;
26080;SDS011;13991;51.174;4.438;2023-04-28T09:34:43;3.03;;;1.20;;
26080;SDS011;13991;51.174;4.438;2023-04-28T09:37:22;3.13;;;1.17;;
26080;SDS011;13991;51.174;4.438;2023-04-28T09:39:49;1.50;;;1.23;;
26080;SDS011;13991;51.174;4.438;2023-04-28T09:42:32;3.03;;;0.80;;
26080;SDS011;13991;51.174;4.438;2023-04-28T09:44:59;2.93;;;0.90;;
26080;SDS011;13991;51.174;4.438;2023-04-28T09:47:27;6.27;;;0.87;;
26080;SDS011;13991;51.174;4.438;2023-04-28T09:49:54;6.47;;;0.80;;
26080;SDS011;13991;51.174;4.438;2023-04-28T09:52:24;10.03;;;1.33;;
26080;SDS011;13991;51.174;4.438;2023-04-28T09:54:51;0.97;;;0.60;;
26080;SDS011;13991;51.174;4.438;2023-04-28T09:57:18;3.37;;;0.80;;
26080;SDS011;13991;51.174;4.438;2023-04-28T09:59:48;7.23;;;1.20;;
26080;SDS011;13991;51.174;4.438;2023-04-28T10:02:15;3.50;;;0.60;;
26080;SDS011;13991;51.174;4.438;2023-04-28T10:04:45;1.37;;;0.70;;
26080;SDS011;13991;51.174;4.438;2023-04-28T10:07:12;1.97;;;1.00;;
26080;SDS011;13991;51.174;4.438;2023-04-28T10:09:40;1.70;;;1.13;;
26080;SDS011;13991;51.174;4.438;2023-04-28T10:12:17;3.97;;;1.20;;
26080;SDS011;13991;51.174;4.438;2023-04-28T10:14:44;0.70;;;0.70;;
26080;SDS011;13991;51.174;4.438;2023-04-28T10:17:12;1.33;;;0.97;;
26080;SDS011;13991;51.174;4.438;2023-04-28T10:19:39;3.50;;;1.17;;
26080;SDS011;13991;51.174;4.438;2023-04-28T10:27:43;5.90;;;1.40;;
26080;SDS011;13991;51.174;4.438;2023-04-28T10:30:18;1.37;;;1.23;;
26080;SDS011;13991;51.174;4.438;2023-04-28T10:33:21;6.10;;;1.30;;
26080;SDS011;13991;51.174;4.438;2023-04-28T10:35:43;6.80;;;1.37;;
26080;SDS011;13991;51.174;4.438;2023-04-28T10:38:11;3.80;;;1.23;;
26080;SDS011;13991;51.174;4.438;2023-04-28T10:40:48;6.43;;;1.57;;
26080;SDS011;13991;51.174;4.438;2023-04-28T10:56:15;3.17;;;1.23;;
26080;SDS011;13991;51.174;4.438;2023-04-28T11:06:41;3.23;;;1.37;;
26080;SDS011;13991;51.174;4.438;2023-04-28T11:11:36;7.27;;;2.20;;
26080;SDS011;13991;51.174;4.438;2023-04-28T11:16:49;8.40;;;1.50;;
26080;SDS011;13991;51.174;4.438;2023-04-28T11:19:19;9.93;;;1.43;;
26080;SDS011;13991;51.174;4.438;2023-04-28T11:21:50;14.57;;;1.97;;
26080;SDS011;13991;51.174;4.438;2023-04-28T11:24:17;9.10;;;1.63;;
26080;SDS011;13991;51.174;4.438;2023-04-28T11:26:43;3.77;;;0.90;;
26080;SDS011;13991;51.174;4.438;2023-04-28T11:29:10;1.53;;;0.93;;
26080;SDS011;13991;51.174;4.438;2023-04-28T11:31:36;2.47;;;1.00;;
26080;SDS011;13991;51.174;4.438;2023-04-28T11:34:03;3.17;;;0.73;;
26080;SDS011;13991;51.174;4.438;2023-04-28T11:36:33;1.60;;;0.80;;
26080;SDS011;13991;51.174;4.438;2023-04-28T11:39:06;4.00;;;1.00;;
26080;SDS011;13991;51.174;4.438;2023-04-28T11:41:33;4.77;;;1.60;;
26080;SDS011;13991;51.174;4.438;2023-04-28T11:46:35;2.90;;;1.80;;
26080;SDS011;13991;51.174;4.438;2023-04-28T11:49:15;5.17;;;1.57;;
26080;SDS011;13991;51.174;4.438;2023-04-28T11:51:42;4.47;;;1.67;;
26080;SDS011;13991;51.174;4.438;2023-04-28T11:54:10;3.33;;;1.17;;
26080;SDS011;13991;51.174;4.438;2023-04-28T11:56:36;1.53;;;1.03;;
26080;SDS011;13991;51.174;4.438;2023-04-28T11:59:07;3.43;;;1.47;;
26080;SDS011;13991;51.174;4.438;2023-04-28T12:01:42;2.30;;;1.37;;
26080;SDS011;13991;51.174;4.438;2023-04-28T12:04:09;2.47;;;1.60;;
26080;SDS011;13991;51.174;4.438;2023-04-28T12:06:34;2.90;;;2.10;;
26080;SDS011;13991;51.174;4.438;2023-04-28T12:09:00;4.47;;;2.30;;
26080;SDS011;13991;51.174;4.438;2023-04-28T12:11:58;5.67;;;2.77;;
26080;SDS011;13991;51.174;4.438;2023-04-28T12:14:26;5.30;;;2.13;;
26080;SDS011;13991;51.174;4.438;2023-04-28T12:16:52;7.43;;;2.63;;
26080;SDS011;13991;51.174;4.438;2023-04-28T12:19:18;4.60;;;2.87;;
26080;SDS011;13991;51.174;4.438;2023-04-28T12:22:05;5.10;;;2.93;;
26080;SDS011;13991;51.174;4.438;2023-04-28T12:24:31;4.07;;;3.10;;
26080;SDS011;13991;51.174;4.438;2023-04-28T12:27:15;3.13;;;2.50;;
26080;SDS011;13991;51.174;4.438;2023-04-28T12:29:44;4.43;;;3.13;;
26080;SDS011;13991;51.174;4.438;2023-04-28T12:32:10;10.40;;;3.50;;
26080;SDS011;13991;51.174;4.438;2023-04-28T12:34:37;6.47;;;3.47;;
26080;SDS011;13991;51.174;4.438;2023-04-28T12:37:04;6.33;;;3.77;;
26080;SDS011;13991;51.174;4.438;2023-04-28T12:39:39;4.93;;;2.87;;
26080;SDS011;13991;51.174;4.438;2023-04-28T12:42:06;4.67;;;2.87;;
26080;SDS011;13991;51.174;4.438;2023-04-28T12:44:32;5.73;;;2.60;;
26080;SDS011;13991;51.174;4.438;2023-04-28T12:47:00;4.40;;;2.37;;
26080;SDS011;13991;51.174;4.438;2023-04-28T12:49:33;5.87;;;2.57;;
26080;SDS011;13991;51.174;4.438;2023-04-28T12:52:00;5.20;;;2.37;;
26080;SDS011;13991;51.174;4.438;2023-04-28T12:54:26;3.37;;;1.90;;
26080;SDS011;13991;51.174;4.438;2023-04-28T12:56:51;2.57;;;1.97;;
26080;SDS011;13991;51.174;4.438;2023-04-28T12:59:20;3.47;;;1.30;;
26080;SDS011;13991;51.174;4.438;2023-04-28T13:01:47;6.80;;;1.50;;
26080;SDS011;13991;51.174;4.438;2023-04-28T13:04:13;3.00;;;1.47;;
26080;SDS011;13991;51.174;4.438;2023-04-28T13:06:39;3.03;;;1.57;;
26080;SDS011;13991;51.174;4.438;2023-04-28T13:09:08;1.40;;;1.27;;
26080;SDS011;13991;51.174;4.438;2023-04-28T13:11:38;1.57;;;1.30;;
26080;SDS011;13991;51.174;4.438;2023-04-28T13:14:05;10.10;;;1.37;;
26080;SDS011;13991;51.174;4.438;2023-04-28T13:16:31;6.30;;;1.73;;
26080;SDS011;13991;51.174;4.438;2023-04-28T13:18:57;4.33;;;1.77;;
26080;SDS011;13991;51.174;4.438;2023-04-28T13:21:23;7.97;;;1.70;;
26080;SDS011;13991;51.174;4.438;2023-04-28T13:23:51;8.30;;;1.53;;
26080;SDS011;13991;51.174;4.438;2023-04-28T13:26:18;5.10;;;1.57;;
26080;SDS011;13991;51.174;4.438;2023-04-28T13:28:44;1.00;;;0.87;;
26080;SDS011;13991;51.174;4.438;2023-04-28T13:31:11;3.90;;;1.03;;
26080;SDS011;13991;51.174;4.438;2023-04-28T13:33:38;2.50;;;1.20;;
26080;SDS011;13991;51.174;4.438;2023-04-28T13:36:04;8.00;;;1.20;;
26080;SDS011;13991;51.174;4.438;2023-04-28T13:38:32;3.07;;;0.90;;
26080;SDS011;13991;51.174;4.438;2023-04-28T13:40:57;6.90;;;1.07;;
26080;SDS011;13991;51.174;4.438;2023-04-28T13:43:23;1.53;;;1.07;;
26080;SDS011;13991;51.174;4.438;2023-04-28T13:45:49;1.37;;;0.97;;
26080;SDS011;13991;51.174;4.438;2023-04-28T13:48:16;3.13;;;0.90;;
26080;SDS011;13991;51.174;4.438;2023-04-28T13:50:41;4.13;;;0.80;;
26080;SDS011;13991;51.174;4.438;2023-04-28T13:53:07;4.03;;;1.43;;
26080;SDS011;13991;51.174;4.438;2023-04-28T13:55:33;1.20;;;0.80;;
26080;SDS011;13991;51.174;4.438;2023-04-28T13:57:58;1.57;;;1.20;;
26080;SDS011;13991;51.174;4.438;2023-04-28T14:00:28;4.33;;;1.10;;
26080;SDS011;13991;51.174;4.438;2023-04-28T14:02:57;2.37;;;1.23;;
26080;SDS011;13991;51.174;4.438;2023-04-28T14:05:24;1.67;;;0.90;;
26080;SDS011;13991;51.174;4.438;2023-04-28T14:07:50;3.23;;;1.50;;
26080;SDS011;13991;51.174;4.438;2023-04-28T14:10:17;4.90;;;1.40;;
26080;SDS011;13991;51.174;4.438;2023-04-28T14:12:43;3.10;;;1.57;;
26080;SDS011;13991;51.174;4.438;2023-04-28T14:15:09;6.63;;;1.90;;
26080;SDS011;13991;51.174;4.438;2023-04-28T14:17:35;4.37;;;1.70;;
26080;SDS011;13991;51.174;4.438;2023-04-28T14:20:01;2.93;;;1.30;;
26080;SDS011;13991;51.174;4.438;2023-04-28T14:22:27;1.87;;;1.43;;
26080;SDS011;13991;51.174;4.438;2023-04-28T14:24:54;4.23;;;2.20;;
26080;SDS011;13991;51.174;4.438;2023-04-28T14:27:20;2.77;;;1.47;;
26080;SDS011;13991;51.174;4.438;2023-04-28T14:29:46;5.10;;;1.93;;
26080;SDS011;13991;51.174;4.438;2023-04-28T14:32:15;2.73;;;1.97;;
26080;SDS011;13991;51.174;4.438;2023-04-28T14:34:44;6.07;;;1.93;;
26080;SDS011;13991;51.174;4.438;2023-04-28T14:37:11;8.70;;;2.23;;
26080;SDS011;13991;51.174;4.438;2023-04-28T14:39:38;4.30;;;1.87;;
26080;SDS011;13991;51.174;4.438;2023-04-28T14:42:04;6.87;;;2.07;;
26080;SDS011;13991;51.174;4.438;2023-04-28T14:44:30;7.47;;;3.03;;
26080;SDS011;13991;51.174;4.438;2023-04-28T14:46:56;3.80;;;2.67;;
26080;SDS011;13991;51.174;4.438;2023-04-28T14:49:22;6.00;;;2.30;;
26080;SDS011;13991;51.174;4.438;2023-04-28T14:51:48;5.60;;;2.37;;
26080;SDS011;13991;51.174;4.438;2023-04-28T14:54:14;6.77;;;3.07;;
26080;SDS011;13991;51.174;4.438;2023-04-28T14:56:40;7.33;;;3.30;;
26080;SDS011;13991;51.174;4.438;2023-04-28T14:59:05;5.97;;;3.83;;
26080;SDS011;13991;51.174;4.438;2023-04-28T15:01:32;5.87;;;3.47;;
26080;SDS011;13991;51.174;4.438;2023-04-28T15:03:57;6.20;;;3.47;;
26080;SDS011;13991;51.174;4.438;2023-04-28T15:06:23;8.97;;;3.87;;
26080;SDS011;13991;51.174;4.438;2023-04-28T15:08:49;7.90;;;4.63;;